Time;durP1;ratioP1;P1;durP2;ratioP2;P2;SDS_P1;SDS_P2;PMS_P1;PMS_P2;Temp;Humidity;BMP_temperature;BMP_pressure;BME280_temperature;BME280_humidity;BME280_pressure;Samples;Min_cycle;Max_cycle;Signal;HPM_P1;HPM_P2
2022/01/25 00:08:54;;;;;;;6.31;5.11;;;;;;;-4.99;83.89;101703.99;461657;113;922704;-69
2022/01/25 00:26:58;;;;;;;5.72;4.64;;;;;;;-4.69;85.01;101700.43;461263;112;922292;-71
2022/01/25 00:27:51;;;;;;;6.86;5.47;;;;;;;-4.70;85.01;101696.05;457931;113;922527;-71
2022/01/25 00:29:15;;;;;;;6.06;5.36;;;;;;;-4.69;85.04;101700.43;460271;112;923415;-71
2022/01/25 00:30:22;;;;;;;7.29;5.91;;;;;;;-4.67;85.20;101700.31;455051;114;923180;-71
2022/01/25 00:31:16;;;;;;;5.94;5.34;;;;;;;-4.66;85.15;101694.91;458310;113;922953;-71
2022/01/25 00:32:19;;;;;;;6.27;5.66;;;;;;;-4.66;85.16;101700.23;461122;111;922606;-71
2022/01/25 00:33:22;;;;;;;7.05;6.03;;;;;;;-4.65;85.08;101690.45;461743;114;922637;-71
2022/01/25 00:34:25;;;;;;;6.16;4.92;;;;;;;-4.66;85.06;101688.73;461651;114;922635;-70
2022/01/25 00:35:28;;;;;;;5.75;4.81;;;;;;;-4.67;84.92;101679.89;460903;111;922500;-71
2022/01/25 00:36:32;;;;;;;7.02;6.05;;;;;;;-4.66;84.96;101670.10;461392;113;922597;-70
2022/01/25 00:37:35;;;;;;;6.62;5.22;;;;;;;-4.64;85.00;101670.88;461810;113;922733;-70
2022/01/25 00:38:38;;;;;;;8.16;6.86;;;;;;;-4.62;85.09;101672.48;461686;113;930584;-71
2022/01/25 00:39:41;;;;;;;6.61;5.78;;;;;;;-4.58;85.07;101667.00;460861;111;922572;-71
2022/01/25 00:40:44;;;;;;;6.14;5.49;;;;;;;-4.55;85.11;101672.12;461371;113;922820;-69
2022/01/25 00:41:48;;;;;;;6.00;5.41;;;;;;;-4.51;85.20;101670.98;461360;114;922665;-71
2022/01/25 00:42:50;;;;;;;6.94;5.61;;;;;;;-4.48;85.17;101684.13;461164;114;923265;-71
2022/01/25 00:43:55;;;;;;;7.17;5.19;;;;;;;-4.47;85.21;101678.72;461366;111;922754;-71
2022/01/25 00:44:58;;;;;;;6.66;5.36;;;;;;;-4.45;85.21;101675.94;461105;111;930605;-71
2022/01/25 00:46:06;;;;;;;5.10;4.52;;;;;;;-4.43;85.12;101685.56;461781;114;922680;-71
2022/01/25 00:47:07;;;;;;;5.93;5.40;;;;;;;-4.45;84.97;101687.45;461465;114;922715;-71
2022/01/25 00:48:18;;;;;;;5.69;5.03;;;;;;;-4.46;84.98;101683.07;461613;113;922612;-70
2022/01/25 00:49:25;;;;;;;5.13;4.63;;;;;;;-4.45;84.93;101687.45;460181;113;930534;-71
2022/01/25 00:50:22;;;;;;;5.50;4.96;;;;;;;-4.46;84.87;101685.73;460302;113;922572;-72
2022/01/25 00:53:53;;;;;;;5.16;4.65;;;;;;;-4.47;84.74;101691.17;461183;113;923123;-70
2022/01/25 00:54:58;;;;;;;6.02;5.41;;;;;;;-4.48;84.77;101679.66;461604;113;922664;-71
2022/01/25 00:56:01;;;;;;;6.76;6.11;;;;;;;-4.46;84.83;101691.05;460894;113;922701;-71
2022/01/25 00:57:05;;;;;;;6.84;5.79;;;;;;;-4.45;84.84;101682.13;461407;112;922542;-71
2022/01/25 00:58:08;;;;;;;7.12;6.43;;;;;;;-4.44;84.85;101683.84;461384;114;922610;-71
2022/01/25 00:59:14;;;;;;;7.10;5.22;;;;;;;-4.41;84.92;101683.64;462772;113;930990;-70
2022/01/25 01:00:18;;;;;;;6.30;5.52;;;;;;;-4.36;85.06;101684.25;460552;112;922961;-71
2022/01/25 01:01:22;;;;;;;9.42;6.50;;;;;;;-4.33;85.09;101680.53;461170;111;922637;-71
2022/01/25 01:02:25;;;;;;;7.44;5.96;;;;;;;-4.32;85.02;101682.25;461866;113;922985;-71
2022/01/25 01:03:28;;;;;;;6.34;5.69;;;;;;;-4.32;84.96;101683.11;461600;113;923097;-70
2022/01/25 01:04:32;;;;;;;6.08;5.43;;;;;;;-4.32;84.90;101676.93;462033;113;924068;-70
2022/01/25 01:05:37;;;;;;;6.81;4.88;;;;;;;-4.36;84.72;101678.94;460876;111;922557;-71
2022/01/25 01:06:44;;;;;;;5.84;5.23;;;;;;;-4.40;84.57;101688.03;460088;114;922709;-71
2022/01/25 01:07:48;;;;;;;5.51;5.00;;;;;;;-4.43;84.55;101680.23;462442;113;922730;-70
2022/01/25 01:08:51;;;;;;;5.46;4.74;;;;;;;-4.42;84.64;101683.77;462011;113;923270;-70
2022/01/25 01:09:54;;;;;;;4.93;4.41;;;;;;;-4.41;84.77;101682.82;461871;114;930658;-71
2022/01/25 01:11:00;;;;;;;5.90;5.33;;;;;;;-4.37;84.92;101676.35;461359;112;922537;-70
2022/01/25 01:12:10;;;;;;;6.18;5.56;;;;;;;-4.37;84.85;101677.21;461182;112;922678;-70
2022/01/25 01:13:44;;;;;;;6.43;5.65;;;;;;;-4.37;84.95;101677.21;461367;113;922943;-70
2022/01/25 01:14:38;;;;;;;6.78;5.78;;;;;;;-4.34;84.94;101669.03;458501;113;922777;-70
2022/01/25 01:15:36;;;;;;;7.62;5.62;;;;;;;-4.30;85.13;101675.05;458561;113;922620;-69
2022/01/25 01:16:51;;;;;;;6.17;5.17;;;;;;;-4.27;85.21;101675.70;459292;112;922589;-71
2022/01/25 01:29:02;;;;;;;5.54;4.62;;;;;;;-4.37;85.10;101673.69;455322;114;922562;-70
2022/01/25 01:30:07;;;;;;;6.65;4.63;;;;;;;-4.34;85.23;101673.48;451499;114;922703;-71
2022/01/25 01:31:13;;;;;;;6.98;5.50;;;;;;;-4.31;85.39;101673.33;451273;114;922971;-71
2022/01/25 01:33:53;;;;;;;6.71;5.86;;;;;;;-4.18;85.37;101671.61;473263;110;947187;-71
2022/01/25 01:35:01;;;;;;;8.34;5.71;;;;;;;-4.28;85.44;101673.13;456671;113;923174;-71
2022/01/25 01:41:01;;;;;;;9.09;6.26;;;;;;;-4.20;85.43;101670.86;441298;118;922782;-71
2022/01/25 01:43:11;;;;;;;6.71;5.91;;;;;;;-4.15;85.62;101666.11;458440;113;922963;-71
2022/01/25 01:44:10;;;;;;;6.36;5.72;;;;;;;-4.13;85.65;101672.17;456810;113;922693;-71
2022/01/25 01:46:39;;;;;;;6.77;6.12;;;;;;;-3.98;85.66;101671.25;469448;109;1196390;-70
2022/01/25 01:48:55;;;;;;;6.24;5.58;;;;;;;-3.90;85.70;101674.28;470097;110;948417;-72
2022/01/25 01:49:56;;;;;;;7.78;7.02;;;;;;;-3.99;85.63;101668.67;462367;113;922975;-71
2022/01/25 01:51:27;;;;;;;7.06;5.98;;;;;;;-3.96;85.63;101671.14;462348;113;922801;-71
2022/01/25 01:52:24;;;;;;;6.65;5.99;;;;;;;-3.93;85.70;101666.50;462407;113;922775;-70
2022/01/25 01:53:27;;;;;;;6.97;6.28;;;;;;;-3.91;85.74;101666.38;462745;113;922558;-71
2022/01/25 01:54:30;;;;;;;6.96;5.98;;;;;;;-3.88;85.77;101663.53;462169;113;922622;-71
2022/01/25 01:55:34;;;;;;;6.75;5.81;;;;;;;-3.87;85.82;101663.45;463303;113;922705;-72
2022/01/25 01:56:38;;;;;;;6.94;6.24;;;;;;;-3.85;85.82;101660.66;462851;112;922657;-71
2022/01/25 01:57:42;;;;;;;7.15;5.44;;;;;;;-3.85;85.79;101664.19;462702;112;922487;-71
2022/01/25 01:58:45;;;;;;;7.18;5.48;;;;;;;-3.82;85.82;101661.35;462504;112;922692;-71
2022/01/25 01:59:48;;;;;;;6.53;5.79;;;;;;;-3.82;85.82;101666.68;461827;113;922519;-70
2022/01/25 02:00:52;;;;;;;7.08;6.37;;;;;;;-3.80;85.77;101661.23;461981;113;922481;-70
2022/01/25 02:01:55;;;;;;;7.91;6.14;;;;;;;-3.80;85.69;101658.56;461497;113;922876;-71
2022/01/25 02:03:00;;;;;;;6.75;6.10;;;;;;;-3.82;85.57;101658.69;462255;113;922835;-71
2022/01/25 02:04:06;;;;;;;7.06;6.02;;;;;;;-3.86;85.35;101664.31;462391;113;922788;-71
2022/01/25 02:05:09;;;;;;;8.16;5.75;;;;;;;-3.92;85.04;101656.70;462230;113;922578;-70
2022/01/25 02:06:13;;;;;;;7.32;6.60;;;;;;;-3.97;84.99;101672.11;462185;113;922744;-70
2022/01/25 02:07:16;;;;;;;6.53;5.37;;;;;;;-3.98;85.09;101678.39;462446;113;930828;-70
2022/01/25 02:08:20;;;;;;;6.61;5.94;;;;;;;-4.01;85.08;101667.91;461145;114;927339;-69
2022/01/25 02:09:23;;;;;;;6.17;5.58;;;;;;;-4.06;84.87;101670.86;462349;113;922645;-70
2022/01/25 02:10:27;;;;;;;7.17;5.96;;;;;;;-4.13;84.68;101664.19;462481;113;922962;-71
2022/01/25 02:11:30;;;;;;;5.96;5.37;;;;;;;-4.15;84.72;101667.91;456147;114;923007;-71
2022/01/25 02:12:34;;;;;;;7.47;6.41;;;;;;;-4.16;84.81;101664.39;455749;113;922660;-70
2022/01/25 02:13:40;;;;;;;6.51;5.62;;;;;;;-4.16;84.91;101660.87;445606;116;922631;-71
2022/01/25 02:14:42;;;;;;;8.20;6.03;;;;;;;-4.15;84.93;101663.45;445933;116;922596;-71
2022/01/25 02:15:47;;;;;;;7.13;6.04;;;;;;;-4.13;85.11;101666.85;444169;117;922841;-71
2022/01/25 02:22:25;;;;;;;6.94;6.09;;;;;;;-4.08;85.23;101663.93;462857;112;922538;-71
2022/01/25 02:23:18;;;;;;;6.23;5.48;;;;;;;-4.22;84.74;101662.96;461280;112;922793;-71
2022/01/25 02:24:21;;;;;;;6.01;5.36;;;;;;;-4.32;84.54;101656.48;462115;113;923614;-71
2022/01/25 02:25:26;;;;;;;5.92;5.28;;;;;;;-4.35;84.60;101666.45;462599;113;922599;-71
2022/01/25 02:26:29;;;;;;;6.35;5.72;;;;;;;-4.38;84.68;101670.17;462759;112;922547;-70
2022/01/25 02:27:32;;;;;;;7.15;6.45;;;;;;;-4.38;84.76;101671.97;463007;113;922656;-69
2022/01/25 02:28:39;;;;;;;6.54;5.76;;;;;;;-4.41;84.62;101673.00;461670;113;923108;-70
2022/01/25 02:29:43;;;;;;;6.94;6.28;;;;;;;-4.42;84.68;101673.11;461564;113;928882;-71
2022/01/25 02:30:47;;;;;;;6.75;6.09;;;;;;;-4.41;84.76;101677.50;462909;113;923005;-70
2022/01/25 02:31:53;;;;;;;7.41;6.19;;;;;;;-4.40;84.82;101677.37;462030;112;930625;-71
2022/01/25 02:32:57;;;;;;;7.29;6.57;;;;;;;-4.37;84.84;101676.35;462268;113;922693;-71
2022/01/25 02:34:00;;;;;;;7.83;6.55;;;;;;;-4.34;84.90;101676.16;461343;113;922598;-71
2022/01/25 02:35:04;;;;;;;7.08;5.94;;;;;;;-4.32;84.91;101676.93;462219;113;922891;-72
2022/01/25 02:36:11;;;;;;;7.59;6.86;;;;;;;-4.29;84.96;101671.41;461749;113;922962;-70
2022/01/25 02:37:16;;;;;;;6.86;5.87;;;;;;;-4.28;84.94;101671.32;461895;112;930644;-71
2022/01/25 02:38:22;;;;;;;6.35;5.66;;;;;;;-4.30;84.79;101677.70;461815;113;922774;-71
2022/01/25 02:39:27;;;;;;;5.74;5.18;;;;;;;-4.34;84.63;101669.03;452338;114;922654;-71
2022/01/25 02:40:30;;;;;;;6.82;5.92;;;;;;;-4.34;84.68;101673.48;453325;114;923019;-71
2022/01/25 02:41:34;;;;;;;6.36;5.57;;;;;;;-4.34;84.81;101671.69;462569;112;922684;-71
2022/01/25 02:42:37;;;;;;;6.24;5.25;;;;;;;-4.31;84.95;101674.19;463271;113;922951;-71
2022/01/25 02:43:42;;;;;;;6.88;5.56;;;;;;;-4.28;85.01;101668.66;462798;112;922716;-70
2022/01/25 02:44:47;;;;;;;8.68;6.17;;;;;;;-4.24;85.12;101670.17;462917;113;922852;-71
2022/01/25 02:48:53;;;;;;;8.24;6.90;;;;;;;-4.13;85.40;101677.50;460963;113;923065;-71
2022/01/25 02:49:56;;;;;;;7.09;6.37;;;;;;;-4.09;85.52;101671.06;459270;113;922644;-70
2022/01/25 02:51:01;;;;;;;7.68;5.87;;;;;;;-4.06;85.56;101668.19;459627;113;922534;-70
2022/01/25 02:52:05;;;;;;;6.48;5.46;;;;;;;-4.04;85.63;101673.44;458453;113;930834;-71
2022/01/25 02:53:09;;;;;;;7.93;6.19;;;;;;;-4.05;85.52;101669.05;458209;113;922529;-71
2022/01/25 02:54:13;;;;;;;7.78;6.25;;;;;;;-4.06;85.42;101675.33;459330;113;922869;-70
2022/01/25 02:55:18;;;;;;;6.47;5.51;;;;;;;-4.05;85.50;101677.05;458441;113;922978;-71
2022/01/25 02:56:24;;;;;;;7.09;5.33;;;;;;;-4.04;85.54;101679.62;458735;113;922975;-71
2022/01/25 02:57:27;;;;;;;5.73;5.09;;;;;;;-4.03;85.54;101681.34;458818;113;923361;-71
2022/01/25 02:58:30;;;;;;;7.20;5.83;;;;;;;-4.03;85.43;101680.48;459606;113;923245;-70
2022/01/25 02:59:35;;;;;;;5.39;4.90;;;;;;;-4.05;85.39;101680.56;458722;115;923101;-71
2022/01/25 03:00:38;;;;;;;5.81;5.07;;;;;;;-4.05;85.39;101680.56;458696;114;922825;-73
2022/01/25 03:01:43;;;;;;;5.43;4.91;;;;;;;-4.05;85.34;101674.37;459355;113;922609;-71
2022/01/25 03:02:48;;;;;;;7.41;5.83;;;;;;;-4.05;85.37;101675.23;458691;115;931017;-70
2022/01/25 03:03:51;;;;;;;5.51;4.66;;;;;;;-4.07;85.25;101681.59;458777;113;923007;-71
2022/01/25 03:04:54;;;;;;;6.28;5.35;;;;;;;-4.09;85.14;101672.86;458645;113;922954;-71
2022/01/25 03:05:57;;;;;;;6.28;5.17;;;;;;;-4.10;85.21;101673.81;458089;113;922593;-71
2022/01/25 03:07:00;;;;;;;7.03;5.91;;;;;;;-4.09;85.31;101679.05;458538;115;923093;-71
2022/01/25 03:08:04;;;;;;;7.09;5.38;;;;;;;-4.06;85.40;101670.00;440785;118;922605;-70
2022/01/25 03:09:07;;;;;;;5.93;4.99;;;;;;;-4.05;85.45;101669.91;443043;117;922678;-71
2022/01/25 03:10:12;;;;;;;8.53;5.18;;;;;;;-4.02;85.54;101667.05;444590;117;922591;-70
2022/01/25 03:11:17;;;;;;;5.47;4.90;;;;;;;-3.99;85.58;101671.34;446317;117;922673;-72
2022/01/25 03:12:32;;;;;;;7.04;5.84;;;;;;;-3.97;85.60;101667.61;449977;115;922762;-70
2022/01/25 03:13:32;;;;;;;6.77;6.07;;;;;;;-3.95;85.68;101671.05;443364;117;922711;-70
2022/01/25 03:14:33;;;;;;;6.47;5.62;;;;;;;-3.91;85.72;101671.70;441668;118;922561;-70
2022/01/25 03:15:56;;;;;;;6.71;5.59;;;;;;;-3.90;85.77;101660.96;438732;117;923091;-71
2022/01/25 03:17:11;;;;;;;9.27;6.44;;;;;;;-3.88;85.74;101666.20;447466;116;922603;-69
2022/01/25 03:17:57;;;;;;;6.52;5.77;;;;;;;-3.86;85.78;101675.80;450533;116;922667;-71
2022/01/25 03:19:01;;;;;;;7.24;6.34;;;;;;;-3.85;85.75;101669.52;449860;116;923662;-71
2022/01/25 03:20:07;;;;;;;8.76;6.34;;;;;;;-3.86;85.65;101675.80;449868;116;923159;-71
2022/01/25 03:23:56;;;;;;;9.52;6.06;;;;;;;-3.90;85.51;101673.42;439027;118;922812;-70
2022/01/25 03:24:59;;;;;;;6.62;5.77;;;;;;;-3.91;85.53;101674.37;438949;118;922910;-70
2022/01/25 03:26:02;;;;;;;7.43;6.49;;;;;;;-3.93;85.56;101666.50;438772;118;922594;-71
2022/01/25 03:27:05;;;;;;;7.04;5.84;;;;;;;-3.94;85.60;101667.44;441805;119;922737;-71
2022/01/25 03:28:09;;;;;;;7.76;6.31;;;;;;;-3.93;85.64;101663.83;442355;117;922726;-70
2022/01/25 03:29:12;;;;;;;7.79;6.26;;;;;;;-3.93;85.56;101666.50;441845;118;922670;-71
2022/01/25 03:30:15;;;;;;;6.47;5.18;;;;;;;-3.95;85.50;101668.39;441989;118;923056;-70
2022/01/25 03:31:19;;;;;;;7.34;5.91;;;;;;;-3.96;85.46;101664.00;441464;118;922729;-70
2022/01/25 03:32:22;;;;;;;6.91;6.10;;;;;;;-3.98;85.42;101663.27;443474;118;922739;-70
2022/01/25 03:33:26;;;;;;;6.54;5.86;;;;;;;-3.99;85.40;101658.02;440652;117;922704;-70
2022/01/25 03:34:29;;;;;;;7.74;5.11;;;;;;;-4.00;85.50;101654.50;441930;118;922454;-71
2022/01/25 03:35:32;;;;;;;7.42;6.18;;;;;;;-3.98;85.53;101655.27;449335;116;930500;-71
2022/01/25 03:36:35;;;;;;;6.47;5.67;;;;;;;-3.98;85.54;101654.41;449736;116;922641;-71
2022/01/25 03:37:38;;;;;;;8.32;5.67;;;;;;;-3.98;85.47;101659.74;449885;116;922603;-69
2022/01/25 03:38:42;;;;;;;5.69;5.08;;;;;;;-3.98;85.48;101655.27;451120;115;922574;-71
2022/01/25 03:39:44;;;;;;;6.41;5.74;;;;;;;-3.98;85.51;101660.60;442305;118;922475;-69
2022/01/25 03:40:49;;;;;;;6.84;6.11;;;;;;;-3.97;85.48;101667.61;449493;116;922505;-70
2022/01/25 03:41:52;;;;;;;7.12;6.29;;;;;;;-3.98;85.46;101668.59;438777;118;923072;-70
2022/01/25 03:42:55;;;;;;;8.60;5.84;;;;;;;-3.98;85.45;101670.39;449268;115;922525;-69
2022/01/25 03:43:59;;;;;;;6.36;5.11;;;;;;;-3.98;85.51;101662.41;439783;117;923241;-70
2022/01/25 03:45:04;;;;;;;7.20;5.29;;;;;;;-3.97;85.48;101666.78;449734;116;923681;-72
2022/01/25 03:46:17;;;;;;;6.08;5.20;;;;;;;-3.97;85.48;101664.13;449778;116;922768;-71
2022/01/25 03:47:20;;;;;;;6.31;5.39;;;;;;;-3.99;85.44;101658.88;449803;116;923128;-71
2022/01/25 03:50:50;;;;;;;6.68;5.80;;;;;;;-4.00;85.41;101667.81;441699;119;922699;-71
2022/01/25 03:51:54;;;;;;;7.54;5.42;;;;;;;-3.98;85.42;101673.06;441784;119;922659;-71
2022/01/25 03:52:57;;;;;;;6.85;5.71;;;;;;;-3.97;85.51;101669.45;442080;117;923361;-71
2022/01/25 03:54:00;;;;;;;8.12;6.38;;;;;;;-3.98;85.42;101670.39;441376;117;930691;-71
2022/01/25 03:55:07;;;;;;;11.83;6.29;;;;;;;-4.01;85.33;101662.58;441780;119;922553;-72
2022/01/25 03:56:10;;;;;;;8.04;6.27;;;;;;;-4.01;85.40;101666.10;441743;119;923556;-70
2022/01/25 03:57:14;;;;;;;8.63;7.28;;;;;;;-4.01;85.40;101665.24;441162;118;922699;-71
2022/01/25 03:58:19;;;;;;;10.08;7.78;;;;;;;-4.01;85.34;101660.77;441168;118;930652;-70
2022/01/25 03:59:22;;;;;;;7.99;6.36;;;;;;;-4.01;85.38;101665.24;441279;119;922732;-70
2022/01/25 04:00:25;;;;;;;8.23;7.12;;;;;;;-4.00;85.49;101665.16;442361;119;922568;-71
2022/01/25 04:01:30;;;;;;;10.46;7.73;;;;;;;-3.97;85.53;101662.28;441959;118;922623;-71
2022/01/25 04:02:35;;;;;;;8.38;6.10;;;;;;;-3.95;85.59;101664.86;441785;118;922935;-70
2022/01/25 04:03:45;;;;;;;5.84;5.27;;;;;;;-3.94;85.56;101667.44;442127;119;922863;-70
2022/01/25 04:04:46;;;;;;;6.50;5.14;;;;;;;-3.96;85.47;101666.67;441798;117;923199;-70
2022/01/25 04:05:51;;;;;;;8.32;6.27;;;;;;;-3.97;85.38;101661.46;442420;118;923019;-70
2022/01/25 04:06:54;;;;;;;7.41;5.43;;;;;;;-4.00;85.19;101664.30;441691;119;922939;-70
2022/01/25 04:07:57;;;;;;;7.58;6.05;;;;;;;-4.03;85.15;101668.02;442467;119;922598;-71
2022/01/25 04:09:05;;;;;;;7.94;6.26;;;;;;;-4.04;85.19;101666.30;442001;119;922684;-70
2022/01/25 04:10:09;;;;;;;6.82;5.89;;;;;;;-4.04;85.27;101668.97;442573;118;922829;-71
2022/01/25 04:11:12;;;;;;;8.86;5.71;;;;;;;-4.02;85.30;101664.38;452026;115;922776;-71
2022/01/25 04:12:17;;;;;;;6.20;5.26;;;;;;;-4.00;85.34;101672.28;458710;115;922614;-71
2022/01/25 04:13:20;;;;;;;5.96;5.32;;;;;;;-4.00;85.30;101673.14;458354;115;922590;-70
2022/01/25 04:14:23;;;;;;;6.98;5.79;;;;;;;-4.00;85.27;101673.14;458374;113;922724;-71
2022/01/25 04:15:27;;;;;;;7.44;6.03;;;;;;;-4.00;85.34;101674.95;458619;115;922648;-70
2022/01/25 04:16:53;;;;;;;7.05;5.66;;;;;;;-4.03;85.19;101677.81;458160;115;923341;-69
2022/01/25 04:17:50;;;;;;;7.21;6.13;;;;;;;-4.04;85.13;101674.30;456589;114;922731;-70
2022/01/25 04:20:39;;;;;;;6.56;5.65;;;;;;;-4.06;85.09;101681.52;458288;115;922734;-72
2022/01/25 04:21:11;;;;;;;7.34;6.25;;;;;;;-4.07;85.07;101682.45;442416;113;923051;-70
2022/01/25 04:25:04;;;;;;;8.18;6.27;;;;;;;-4.04;85.23;101682.28;457603;114;922656;-69
2022/01/25 04:26:00;;;;;;;6.89;6.10;;;;;;;-4.03;85.33;101680.48;440934;118;922567;-70
2022/01/25 04:27:04;;;;;;;6.49;5.21;;;;;;;-4.00;85.41;101693.59;440104;119;922734;-71
2022/01/25 04:28:07;;;;;;;7.78;6.40;;;;;;;-4.00;85.45;101686.47;440924;118;923603;-70
2022/01/25 04:29:10;;;;;;;8.09;6.11;;;;;;;-3.98;85.54;101683.72;440231;118;922823;-70
2022/01/25 04:30:14;;;;;;;6.35;5.47;;;;;;;-3.98;85.58;101679.25;448972;116;923040;-71
2022/01/25 04:31:19;;;;;;;6.06;5.42;;;;;;;-3.95;85.62;101687.03;450259;116;923123;-69
2022/01/25 04:32:32;;;;;;;8.08;6.78;;;;;;;-3.96;85.60;101677.33;450660;117;922643;-70
2022/01/25 04:33:39;;;;;;;7.51;6.56;;;;;;;-3.95;85.63;101678.19;448279;115;922596;-70
2022/01/25 04:35:56;;;;;;;6.99;6.02;;;;;;;-3.93;85.64;101674.48;433836;120;922984;-71
2022/01/25 04:49:02;;;;;;;6.97;5.07;;;;;;;-3.92;85.77;101675.34;458125;115;922631;-71
2022/01/25 04:50:01;;;;;;;7.39;6.00;;;;;;;-3.93;85.76;101673.63;461147;112;922595;-72
2022/01/25 04:51:23;;;;;;;8.46;5.82;;;;;;;-3.95;85.75;101668.39;462475;113;922664;-70
2022/01/25 04:52:14;;;;;;;10.02;6.56;;;;;;;-3.95;85.79;101667.53;461808;113;923149;-71
2022/01/25 04:53:23;;;;;;;6.28;5.38;;;;;;;-3.95;85.75;101670.19;462892;112;922789;-70
2022/01/25 04:56:06;;;;;;;6.05;5.05;;;;;;;-3.95;85.73;101667.53;462488;112;922581;-70
2022/01/25 04:56:51;;;;;;;8.28;6.09;;;;;;;-3.97;85.65;101667.61;454961;114;922568;-70
2022/01/25 04:57:56;;;;;;;6.39;4.87;;;;;;;-4.00;85.28;101666.95;461147;112;922471;-71
2022/01/25 04:59:09;;;;;;;6.82;5.94;;;;;;;-4.00;85.28;101666.95;461504;113;923114;-70
2022/01/25 05:00:15;;;;;;;7.47;6.24;;;;;;;-4.01;85.53;101671.42;461188;113;922612;-72
2022/01/25 05:01:12;;;;;;;6.23;5.46;;;;;;;-4.00;85.59;101677.61;461047;113;922570;-70
2022/01/25 05:02:26;;;;;;;7.31;6.22;;;;;;;-3.98;85.67;101676.58;463203;113;922619;-71
2022/01/25 05:03:27;;;;;;;9.22;7.30;;;;;;;-3.95;85.71;101675.52;461887;113;930549;-71
2022/01/25 05:04:32;;;;;;;8.42;6.69;;;;;;;-3.95;85.73;101676.38;462050;113;922783;-71
2022/01/25 05:05:37;;;;;;;8.02;6.40;;;;;;;-3.92;85.77;101678.87;452862;116;923155;-70
2022/01/25 05:06:38;;;;;;;7.90;6.33;;;;;;;-3.92;85.71;101680.67;452320;116;922617;-70
2022/01/25 05:07:51;;;;;;;8.37;6.55;;;;;;;-3.91;85.70;101677.03;453246;116;922571;-70
2022/01/25 05:08:51;;;;;;;8.98;6.91;;;;;;;-3.91;85.75;101672.56;461145;113;922702;-71
2022/01/25 05:09:53;;;;;;;11.91;5.93;;;;;;;-3.91;85.59;101675.23;462211;114;922690;-71
2022/01/25 05:11:07;;;;;;;8.28;6.89;;;;;;;-3.90;85.61;101682.27;461954;113;922661;-70
2022/01/25 05:12:09;;;;;;;9.43;6.42;;;;;;;-3.88;85.66;101682.19;461057;113;922497;-71
2022/01/25 05:14:30;;;;;;;10.39;7.65;;;;;;;-3.85;85.79;101677.51;461681;114;922584;-70
2022/01/25 05:16:58;;;;;;;8.23;6.56;;;;;;;-3.84;85.64;101678.37;462139;113;922593;-70
2022/01/25 05:19:23;;;;;;;7.54;6.23;;;;;;;-3.87;85.52;101674.11;462191;113;922559;-70
2022/01/25 05:22:58;;;;;;;8.16;5.96;;;;;;;-3.85;85.71;101677.51;461779;112;922716;-68
2022/01/25 05:24:02;;;;;;;7.30;5.96;;;;;;;-3.86;85.68;101681.13;462563;113;922517;-70
2022/01/25 05:25:06;;;;;;;7.15;6.16;;;;;;;-3.86;85.69;101670.46;461930;113;922682;-70
2022/01/25 05:26:09;;;;;;;6.88;5.96;;;;;;;-3.85;85.72;101666.00;462493;113;930574;-71
2022/01/25 05:27:14;;;;;;;6.06;5.31;;;;;;;-3.86;85.67;101667.80;461877;113;922694;-72
2022/01/25 05:28:18;;;;;;;7.98;6.42;;;;;;;-3.86;85.60;101666.98;462073;113;923457;-69
2022/01/25 05:29:21;;;;;;;6.19;5.56;;;;;;;-3.87;85.58;101666.11;462560;113;922851;-70
2022/01/25 05:30:25;;;;;;;6.84;6.06;;;;;;;-3.89;85.53;101662.67;462847;114;930644;-70
2022/01/25 05:31:28;;;;;;;8.19;6.21;;;;;;;-3.89;85.46;101667.15;462314;112;922589;-70
2022/01/25 05:32:32;;;;;;;7.16;5.72;;;;;;;-3.94;85.19;101669.25;461741;112;922608;-70
2022/01/25 05:33:35;;;;;;;8.65;6.01;;;;;;;-4.01;85.00;101671.42;462226;113;922685;-71
2022/01/25 05:34:39;;;;;;;7.06;6.20;;;;;;;-4.05;84.89;101674.37;462264;113;930533;-69
2022/01/25 05:35:42;;;;;;;7.32;6.11;;;;;;;-4.09;84.82;101679.05;462190;113;922664;-70
2022/01/25 05:36:46;;;;;;;7.66;6.24;;;;;;;-4.10;84.90;101671.15;461844;113;922544;-70
2022/01/25 05:37:50;;;;;;;7.99;5.74;;;;;;;-4.09;85.04;101679.05;461007;113;930541;-72
2022/01/25 05:38:56;;;;;;;7.53;6.01;;;;;;;-4.07;85.13;101671.80;461233;113;922989;-70
2022/01/25 05:39:59;;;;;;;8.88;7.54;;;;;;;-4.04;85.29;101671.63;462480;113;922630;-72
2022/01/25 05:41:04;;;;;;;9.31;7.44;;;;;;;-4.00;85.29;101680.27;461871;113;922835;-71
2022/01/25 05:42:42;;;;;;;8.38;7.58;;;;;;;-3.96;85.45;101679.98;461140;113;922542;-70
2022/01/25 05:44:58;;;;;;;8.76;7.88;;;;;;;-3.88;85.66;101677.72;462246;113;923292;-72
2022/01/25 05:46:12;;;;;;;9.99;8.54;;;;;;;-3.85;85.69;101676.66;461577;113;922949;-69
2022/01/25 05:47:12;;;;;;;8.81;7.82;;;;;;;-3.86;85.54;101677.63;461356;114;922767;-71
2022/01/25 05:48:13;;;;;;;8.93;7.61;;;;;;;-3.86;85.50;101674.97;462032;113;923322;-71
2022/01/25 05:49:16;;;;;;;9.74;8.32;;;;;;;-3.86;85.47;101680.30;462482;113;923454;-71
2022/01/25 05:50:20;;;;;;;8.52;7.63;;;;;;;-3.87;85.41;101674.11;462351;113;923578;-70
2022/01/25 05:51:23;;;;;;;10.17;8.38;;;;;;;-3.88;85.37;101677.72;462511;113;922697;-70
2022/01/25 05:52:26;;;;;;;9.27;7.15;;;;;;;-3.88;85.41;101677.72;462338;113;922662;-70
2022/01/25 05:53:30;;;;;;;7.11;6.29;;;;;;;-3.85;85.53;101680.17;461537;113;922740;-72
2022/01/25 05:54:33;;;;;;;14.55;8.36;;;;;;;-3.86;85.38;101674.97;462076;113;930507;-70
2022/01/25 05:55:36;;;;;;;9.35;7.21;;;;;;;-3.87;85.25;101675.91;462167;113;922530;-71
2022/01/25 05:56:39;;;;;;;9.94;8.19;;;;;;;-3.89;85.19;101669.81;462447;113;922685;-69
2022/01/25 05:57:42;;;;;;;10.04;7.62;;;;;;;-3.90;85.16;101673.42;462215;113;922647;-69
2022/01/25 05:58:45;;;;;;;9.06;7.68;;;;;;;-3.91;85.18;101675.23;461833;113;930513;-68
2022/01/25 05:59:48;;;;;;;8.17;7.11;;;;;;;-3.91;85.15;101677.89;462078;113;922621;-71
2022/01/25 06:00:52;;;;;;;8.07;7.12;;;;;;;-3.91;85.09;101677.03;461714;113;923141;-69
2022/01/25 06:01:55;;;;;;;10.16;6.76;;;;;;;-3.92;85.06;101675.34;461423;113;922555;-70
2022/01/25 06:02:58;;;;;;;12.49;7.51;;;;;;;-3.91;85.04;101672.56;461110;113;922563;-68
2022/01/25 06:04:02;;;;;;;7.25;6.26;;;;;;;-3.92;85.04;101673.54;462944;113;923022;-70
2022/01/25 06:05:06;;;;;;;6.84;6.16;;;;;;;-3.90;85.12;101668.95;462294;114;923156;-71
2022/01/25 06:06:09;;;;;;;7.13;6.06;;;;;;;-3.89;85.22;101670.67;462167;113;922689;-72
2022/01/25 06:07:13;;;;;;;7.64;5.99;;;;;;;-3.86;85.28;101677.63;462802;113;930585;-72
2022/01/25 06:08:15;;;;;;;8.26;6.03;;;;;;;-3.85;85.32;101677.51;463510;114;922593;-72
2022/01/25 06:09:19;;;;;;;10.14;6.96;;;;;;;-3.85;85.22;101672.19;463763;113;922534;-71
2022/01/25 06:10:23;;;;;;;8.36;6.83;;;;;;;-3.85;85.14;101681.98;462267;113;923028;-68
2022/01/25 06:11:26;;;;;;;9.16;7.71;;;;;;;-3.86;85.01;101674.97;462661;113;922977;-71
2022/01/25 06:12:28;;;;;;;11.04;7.52;;;;;;;-3.86;84.98;101675.80;462213;113;922498;-71
2022/01/25 06:13:32;;;;;;;8.32;7.28;;;;;;;-3.85;85.03;101680.17;462581;113;923369;-70
2022/01/25 06:14:38;;;;;;;8.37;6.78;;;;;;;-3.82;85.20;101672.01;461422;114;922532;-71
2022/01/25 06:15:41;;;;;;;7.58;6.84;;;;;;;-3.79;85.32;101677.13;461590;113;922662;-69
2022/01/25 06:16:44;;;;;;;8.41;7.47;;;;;;;-3.75;85.36;101667.16;462272;113;922733;-70
2022/01/25 06:17:47;;;;;;;8.74;7.56;;;;;;;-3.71;85.44;101673.14;462325;113;922684;-70
2022/01/25 06:18:50;;;;;;;8.63;7.76;;;;;;;-3.68;85.56;101667.59;462856;112;922673;-71
2022/01/25 06:19:53;;;;;;;9.67;8.53;;;;;;;-3.65;85.65;101662.95;462291;113;922666;-71
2022/01/25 06:20:56;;;;;;;10.68;8.33;;;;;;;-3.62;85.63;101664.55;462835;114;923004;-70
2022/01/25 06:21:59;;;;;;;8.69;7.71;;;;;;;-3.60;85.61;101665.31;462664;113;922573;-70
2022/01/25 06:23:02;;;;;;;9.87;7.72;;;;;;;-3.59;85.55;101672.36;461765;113;923087;-69
2022/01/25 06:24:06;;;;;;;9.45;8.09;;;;;;;-3.57;85.66;101665.11;462305;113;923268;-70
2022/01/25 06:25:10;;;;;;;10.24;8.31;;;;;;;-3.55;85.76;101671.20;463022;113;923325;-71